Time,TemperatureF,DewpointF,PressureIn,WindDirection,WindDirectionDegrees,WindSpeedMPH,WindSpeedGustMPH,Humidity,HourlyPrecipIn,Conditions,Clouds,dailyrainin,SolarRadiationWatts/m^2,SoftwareType,DateUTC
2013-10-28 00:22:00,50.0,47.0,29.74,SSW,213,32.0,43.0,90,0.00,,,0.00,0.000000,,2013-10-28 07:22:00,
2013-10-28 00:32:00,50.0,47.0,29.74,SSW,213,32.0,43.0,90,0.00,,,0.00,0.000000,,2013-10-28 07:32:00,
2013-10-28 00:42:00,50.0,47.0,29.74,SSW,213,32.0,43.0,90,0.00,,,0.00,0.000000,,2013-10-28 07:42:00,
2013-10-28 00:52:00,50.0,47.0,29.74,SSW,213,32.0,43.0,90,0.00,,,0.00,0.000000,,2013-10-28 07:52:00,
2013-10-28 01:22:00,50.0,48.0,29.73,SW,217,28.0,44.0,93,0.00,,,0.00,0.000000,,2013-10-28 08:22:00,
2013-10-28 01:32:00,50.0,48.0,29.73,SW,217,28.0,44.0,93,0.00,,,0.00,0.000000,,2013-10-28 08:32:00,
2013-10-28 01:42:00,50.0,48.0,29.73,SW,217,28.0,44.0,93,0.00,,,0.00,0.000000,,2013-10-28 08:42:00,
2013-10-28 01:51:00,50.0,48.0,29.73,SW,217,28.0,44.0,93,0.00,,,0.00,0.000000,,2013-10-28 08:51:00,
2013-10-28 02:21:00,52.0,50.0,29.73,WSW,245,19.0,44.0,94,0.00,,,0.00,0.000000,,2013-10-28 09:21:00,
2013-10-28 02:33:00,52.0,50.0,29.73,WSW,245,19.0,44.0,94,0.00,,,0.00,0.000000,,2013-10-28 09:33:00,
2013-10-28 02:43:00,52.0,50.0,29.73,WSW,245,19.0,44.0,94,0.00,,,0.00,0.000000,,2013-10-28 09:43:00,
2013-10-28 02:53:00,52.0,50.0,29.73,WSW,245,19.0,44.0,94,0.00,,,0.00,0.000000,,2013-10-28 09:53:00,
2013-10-28 03:23:00,50.0,48.0,29.72,SW,215,29.0,40.0,94,0.00,,,0.00,0.000000,,2013-10-28 10:23:00,
2013-10-28 03:33:00,50.0,48.0,29.72,SW,215,29.0,40.0,94,0.00,,,0.00,0.000000,,2013-10-28 10:33:00,
2013-10-28 03:43:00,50.0,48.0,29.72,SW,215,29.0,40.0,94,0.00,,,0.00,0.000000,,2013-10-28 10:43:00,
2013-10-28 03:53:00,50.0,48.0,29.72,SW,215,29.0,40.0,94,0.00,,,0.00,0.000000,,2013-10-28 10:53:00,
2013-10-28 04:22:00,50.0,44.0,29.70,SW,225,26.0,45.0,81,0.00,,,0.00,0.000000,,2013-10-28 11:22:00,
2013-10-28 04:33:00,50.0,44.0,29.70,SW,225,26.0,45.0,81,0.00,,,0.00,0.000000,,2013-10-28 11:33:00,
2013-10-28 04:42:00,50.0,44.0,29.70,SW,225,26.0,45.0,81,0.00,,,0.00,0.000000,,2013-10-28 11:42:00,
2013-10-28 04:52:00,50.0,44.0,29.70,SW,225,26.0,45.0,81,0.00,,,0.00,0.000000,,2013-10-28 11:52:00,
2013-10-28 05:21:00,49.0,46.0,29.73,SW,231,13.0,42.0,89,0.00,,,0.00,0.000000,,2013-10-28 12:21:00,
2013-10-28 05:32:00,49.0,46.0,29.73,SW,231,13.0,42.0,89,0.00,,,0.00,0.000000,,2013-10-28 12:32:00,
2013-10-28 05:42:00,49.0,46.0,29.73,SW,231,13.0,42.0,89,0.00,,,0.00,0.000000,,2013-10-28 12:42:00,
2013-10-28 05:52:00,49.0,46.0,29.73,SW,231,13.0,42.0,89,0.00,,,0.00,0.000000,,2013-10-28 12:52:00,
2013-10-28 06:22:00,46.0,44.0,29.75,WSW,247,11.0,36.0,94,0.00,,,0.00,0.000000,,2013-10-28 13:22:00,
2013-10-28 06:32:00,46.0,44.0,29.75,WSW,247,11.0,36.0,94,0.00,,,0.00,0.000000,,2013-10-28 13:32:00,
2013-10-28 06:42:00,46.0,44.0,29.75,WSW,247,11.0,36.0,94,0.00,,,0.00,0.000000,,2013-10-28 13:42:00,
2013-10-28 06:52:00,46.0,44.0,29.75,WSW,247,11.0,36.0,94,0.00,,,0.00,0.000000,,2013-10-28 13:52:00,
2013-10-28 07:21:00,45.0,41.0,29.74,SW,219,23.0,29.0,85,0.00,,,0.00,0.000000,,2013-10-28 14:21:00,
2013-10-28 07:32:00,45.0,41.0,29.74,SW,219,23.0,29.0,85,0.00,,,0.00,0.000000,,2013-10-28 14:32:00,
2013-10-28 07:41:00,45.0,41.0,29.74,SW,219,23.0,29.0,85,0.00,,,0.00,0.000000,,2013-10-28 14:41:00,
2013-10-28 07:52:00,45.0,41.0,29.74,SW,219,23.0,29.0,85,0.00,,,0.00,0.000000,,2013-10-28 14:52:00,
2013-10-28 08:21:00,48.0,43.0,29.78,SW,229,17.0,35.0,82,0.00,,,0.00,28.000000,,2013-10-28 15:21:00,
2013-10-28 08:33:00,48.0,43.0,29.78,SW,229,17.0,35.0,82,0.00,,,0.00,28.000000,,2013-10-28 15:33:00,
2013-10-28 08:43:00,48.0,43.0,29.78,SW,229,17.0,35.0,82,0.00,,,0.00,28.000000,,2013-10-28 15:43:00,
2013-10-28 08:53:00,48.0,43.0,29.78,SW,229,17.0,35.0,82,0.00,,,0.00,28.000000,,2013-10-28 15:53:00,
2013-10-28 09:23:00,47.0,38.0,29.81,SW,230,14.0,33.0,71,0.00,,,0.00,47.000000,,2013-10-28 16:23:00,
2013-10-28 09:32:00,47.0,38.0,29.81,SW,230,14.0,33.0,71,0.00,,,0.00,47.000000,,2013-10-28 16:32:00,
2013-10-28 09:43:00,47.0,38.0,29.81,SW,230,14.0,33.0,71,0.00,,,0.00,47.000000,,2013-10-28 16:43:00,
2013-10-28 09:53:00,47.0,38.0,29.81,SW,230,14.0,33.0,71,0.00,,,0.00,47.000000,,2013-10-28 16:53:00,
2013-10-28 10:22:00,53.0,41.0,29.81,SW,231,19.0,22.0,64,0.00,,,0.00,218.000000,,2013-10-28 17:22:00,
2013-10-28 10:33:00,53.0,41.0,29.81,SW,231,19.0,22.0,64,0.00,,,0.00,218.000000,,2013-10-28 17:33:00,
2013-10-28 10:42:00,53.0,41.0,29.81,SW,231,19.0,22.0,64,0.00,,,0.00,218.000000,,2013-10-28 17:42:00,
2013-10-28 10:52:00,53.0,41.0,29.81,SW,231,19.0,22.0,64,0.00,,,0.00,218.000000,,2013-10-28 17:52:00,
2013-10-28 11:21:00,55.0,41.0,29.82,WSW,241,15.0,35.0,59,0.00,,,0.00,588.000000,,2013-10-28 18:21:00,
2013-10-28 11:32:00,55.0,41.0,29.82,WSW,241,15.0,35.0,59,0.00,,,0.00,588.000000,,2013-10-28 18:32:00,
2013-10-28 11:42:00,55.0,41.0,29.82,WSW,241,15.0,35.0,59,0.00,,,0.00,588.000000,,2013-10-28 18:42:00,
2013-10-28 11:52:00,55.0,41.0,29.82,WSW,241,15.0,35.0,59,0.00,,,0.00,588.000000,,2013-10-28 18:52:00,
2013-10-28 12:22:00,59.0,40.0,29.81,SSW,203,22.0,35.0,50,0.00,,,0.00,817.000000,,2013-10-28 19:22:00,
2013-10-28 12:33:00,59.0,40.0,29.81,SSW,203,22.0,35.0,50,0.00,,,0.00,817.000000,,2013-10-28 19:33:00,
2013-10-28 12:42:00,59.0,40.0,29.81,SSW,203,22.0,35.0,50,0.00,,,0.00,817.000000,,2013-10-28 19:42:00,
2013-10-28 12:52:00,59.0,40.0,29.81,SSW,203,22.0,35.0,50,0.00,,,0.00,817.000000,,2013-10-28 19:52:00,
2013-10-28 13:21:00,59.0,37.0,29.78,SSW,209,24.0,36.0,44,0.00,,,0.00,802.000000,,2013-10-28 20:21:00,
2013-10-28 13:32:00,59.0,37.0,29.78,SSW,209,24.0,36.0,44,0.00,,,0.00,802.000000,,2013-10-28 20:32:00,
2013-10-28 13:42:00,59.0,37.0,29.78,SSW,209,24.0,36.0,44,0.00,,,0.00,802.000000,,2013-10-28 20:42:00,
2013-10-28 13:52:00,59.0,37.0,29.78,SSW,209,24.0,36.0,44,0.00,,,0.00,802.000000,,2013-10-28 20:52:00,
2013-10-28 14:21:00,57.0,35.0,29.77,SSW,197,25.0,38.0,43,0.00,,,0.00,763.000000,,2013-10-28 21:21:00,
2013-10-28 14:34:00,57.0,35.0,29.77,SSW,197,25.0,38.0,43,0.00,,,0.00,763.000000,,2013-10-28 21:34:00,
2013-10-28 14:43:00,57.0,35.0,29.77,SSW,197,25.0,38.0,43,0.00,,,0.00,763.000000,,2013-10-28 21:43:00,
2013-10-28 14:53:00,57.0,35.0,29.77,SSW,197,25.0,38.0,43,0.00,,,0.00,763.000000,,2013-10-28 21:53:00,
2013-10-28 15:23:00,57.0,38.0,29.76,SSW,203,23.0,37.0,49,0.00,,,0.00,248.000000,,2013-10-28 22:23:00,
2013-10-28 15:34:00,57.0,38.0,29.76,SSW,203,23.0,37.0,49,0.00,,,0.00,248.000000,,2013-10-28 22:34:00,
2013-10-28 15:43:00,57.0,38.0,29.76,SSW,203,23.0,37.0,49,0.00,,,0.00,248.000000,,2013-10-28 22:43:00,
2013-10-28 15:53:00,57.0,38.0,29.76,SSW,203,23.0,37.0,49,0.00,,,0.00,248.000000,,2013-10-28 22:53:00,
2013-10-28 16:22:00,54.0,38.0,29.76,SSW,207,26.0,41.0,54,0.00,,,0.00,321.000000,,2013-10-28 23:22:00,
2013-10-28 16:34:00,54.0,38.0,29.76,SSW,207,26.0,41.0,54,0.00,,,0.00,321.000000,,2013-10-28 23:34:00,
2013-10-28 16:42:00,54.0,38.0,29.76,SSW,207,26.0,41.0,54,0.00,,,0.00,321.000000,,2013-10-28 23:42:00,
2013-10-28 16:52:00,54.0,38.0,29.76,SSW,207,26.0,41.0,54,0.00,,,0.00,321.000000,,2013-10-28 23:52:00,
2013-10-28 17:21:00,52.0,37.0,29.79,SW,214,21.0,38.0,56,0.00,,,0.00,253.000000,,2013-10-29 00:21:00,
2013-10-28 17:32:00,52.0,37.0,29.79,SW,214,21.0,38.0,56,0.00,,,0.00,253.000000,,2013-10-29 00:32:00,
2013-10-28 17:41:00,52.0,37.0,29.79,SW,214,21.0,38.0,56,0.00,,,0.00,253.000000,,2013-10-29 00:41:00,
2013-10-28 17:52:00,52.0,37.0,29.79,SW,214,21.0,38.0,56,0.00,,,0.00,253.000000,,2013-10-29 00:52:00,
2013-10-28 18:21:00,48.0,38.0,29.80,SW,219,22.0,35.0,67,0.00,,,0.00,43.000000,,2013-10-29 01:21:00,
2013-10-28 18:31:00,48.0,38.0,29.80,SW,219,22.0,35.0,67,0.00,,,0.00,43.000000,,2013-10-29 01:31:00,
2013-10-28 18:42:00,48.0,38.0,29.80,SW,219,22.0,35.0,67,0.00,,,0.00,43.000000,,2013-10-29 01:42:00,
2013-10-28 18:52:00,48.0,38.0,29.80,SW,219,22.0,35.0,67,0.00,,,0.00,43.000000,,2013-10-29 01:52:00,
2013-10-28 19:21:00,47.0,38.0,29.83,SW,219,20.0,35.0,72,0.00,,,0.00,0.000000,,2013-10-29 02:21:00,
2013-10-28 19:34:00,47.0,38.0,29.83,SW,219,20.0,35.0,72,0.00,,,0.00,0.000000,,2013-10-29 02:34:00,
2013-10-28 19:44:00,47.0,38.0,29.83,SW,219,20.0,35.0,72,0.00,,,0.00,0.000000,,2013-10-29 02:44:00,
2013-10-28 19:53:00,47.0,38.0,29.83,SW,219,20.0,35.0,72,0.00,,,0.00,0.000000,,2013-10-29 02:53:00,
2013-10-28 20:27:00,46.0,42.0,29.84,SW,217,16.0,33.0,87,0.00,,,0.00,0.000000,,2013-10-29 03:27:00,
2013-10-28 20:40:00,-999.0,-99.9,29.84,SW,217,16.0,33.0,87,0.00,,,0.00,0.000000,,2013-10-29 03:40:00,
2013-10-28 20:47:00,46.0,42.0,29.84,SW,217,16.0,33.0,87,0.00,,,0.00,0.000000,,2013-10-29 03:47:00,
2013-10-28 20:55:00,46.0,42.0,29.84,SW,217,16.0,33.0,87,0.00,,,0.00,0.000000,,2013-10-29 03:55:00,
2013-10-28 20:56:00,46.0,42.0,29.85,SW,227,14.0,26.0,85,0.00,,,0.00,0.000000,,2013-10-29 03:56:00,
2013-10-28 21:24:00,46.0,42.0,29.85,SW,227,14.0,26.0,85,0.00,,,0.00,0.000000,,2013-10-29 04:24:00,
2013-10-28 21:39:00,46.0,42.0,29.85,SW,227,14.0,26.0,85,0.00,,,0.00,0.000000,,2013-10-29 04:39:00,
2013-10-28 22:22:00,46.0,40.0,29.86,SW,218,17.0,23.0,79,0.00,,,0.00,0.000000,,2013-10-29 05:22:00,
2013-10-28 22:33:00,46.0,40.0,29.86,SW,218,17.0,23.0,79,0.00,,,0.00,0.000000,,2013-10-29 05:33:00,
2013-10-28 22:45:00,46.0,40.0,29.86,SW,218,17.0,23.0,79,0.00,,,0.00,0.000000,,2013-10-29 05:45:00,
2013-10-28 22:52:00,46.0,40.0,29.86,SW,218,17.0,23.0,79,0.00,,,0.00,0.000000,,2013-10-29 05:52:00,
2013-10-28 23:25:00,47.0,41.0,29.89,SW,216,13.0,24.0,81,0.00,,,0.00,0.000000,,2013-10-29 06:25:00,
2013-10-28 23:34:00,47.0,41.0,29.89,SW,216,13.0,24.0,81,0.00,,,0.00,0.000000,,2013-10-29 06:34:00,
2013-10-28 23:43:00,47.0,41.0,29.89,SW,216,13.0,24.0,81,0.00,,,0.00,0.000000,,2013-10-29 06:43:00,
2013-10-28 23:52:00,47.0,41.0,29.89,SW,216,13.0,24.0,81,0.00,,,0.00,0.000000,,2013-10-29 06:52:00,